Time;durP1;ratioP1;P1;durP2;ratioP2;P2;SDS_P1;SDS_P2;PMS_P1;PMS_P2;Temp;Humidity;BMP_temperature;BMP_pressure;BME280_temperature;BME280_humidity;BME280_pressure;Samples;Min_cycle;Max_cycle;Signal;HPM_P1;HPM_P2
2021/10/10 00:00:19;;;;;;;;;39.75;31.25;;;;;12.70;72.89;102374.38;5071709;28;45437;-68
2021/10/10 00:02:44;;;;;;;;;41.25;32.00;;;;;12.68;72.92;102367.38;5072931;28;45408;-68
2021/10/10 00:05:09;;;;;;;;;37.25;33.50;;;;;12.60;73.28;102362.31;5073204;28;45792;-68
2021/10/10 00:07:35;;;;;;;;;35.25;29.75;;;;;12.66;73.25;102379.75;5072590;28;45434;-68
2021/10/10 00:10:00;;;;;;;;;37.50;30.50;;;;;12.64;73.31;102369.25;5065291;28;45296;-68
2021/10/10 00:12:26;;;;;;;;;38.75;32.00;;;;;12.65;73.32;102378.91;5071082;28;45348;-68
2021/10/10 00:14:51;;;;;;;;;34.75;29.00;;;;;12.57;73.51;102365.03;5072806;28;46493;-68
2021/10/10 00:17:17;;;;;;;;;34.25;30.00;;;;;12.58;73.54;102374.69;5071959;28;47157;-68
2021/10/10 00:19:42;;;;;;;;;39.25;31.25;;;;;12.55;73.47;102369.47;5071627;28;45529;-68
2021/10/10 00:22:07;;;;;;;;;41.50;32.50;;;;;12.50;73.38;102368.72;5074847;28;46181;-68
2021/10/10 00:24:34;;;;;;;;;30.25;22.00;;;;;12.49;73.44;102369.63;5073432;28;45404;-68
2021/10/10 00:26:59;;;;;;;;;40.00;31.75;;;;;12.48;73.46;102370.56;5071444;28;46015;-68
2021/10/10 00:29:24;;;;;;;;;35.50;28.50;;;;;12.46;73.49;102372.34;5073747;28;45524;-68
2021/10/10 00:31:50;;;;;;;;;38.50;31.25;;;;;12.42;73.66;102370.69;5067511;28;45484;-68
2021/10/10 00:34:15;;;;;;;;;30.50;28.25;;;;;12.42;73.85;102381.22;5062413;28;45466;-68
2021/10/10 00:36:40;;;;;;;;;33.75;27.75;;;;;12.39;73.82;102379.53;5074701;28;45718;-68
2021/10/10 00:39:06;;;;;;;;;30.75;28.25;;;;;12.39;73.91;102378.69;5072765;28;45477;-68
2021/10/10 00:41:31;;;;;;;;;40.50;30.75;;;;;12.38;73.97;102371.69;5071787;28;45426;-68
2021/10/10 00:43:56;;;;;;;;;36.75;33.50;;;;;12.36;74.19;102376.97;5074357;28;46862;-68
2021/10/10 00:46:22;;;;;;;;;43.50;34.25;;;;;12.26;74.18;102365.78;5073529;28;45300;-68
2021/10/10 00:48:47;;;;;;;;;33.67;28.00;;;;;12.35;74.25;102379.66;5070236;28;45428;-68
2021/10/10 00:51:13;;;;;;;;;40.75;30.25;;;;;12.34;74.17;102376.16;5066903;28;45393;-68
2021/10/10 00:53:39;;;;;;;;;38.50;29.00;;;;;12.31;74.21;102368.31;5071855;28;45615;-69
2021/10/10 00:56:05;;;;;;;;;35.75;31.25;;;;;12.34;74.44;102381.41;5071772;28;45805;-68
2021/10/10 00:58:31;;;;;;;;;40.50;31.50;;;;;12.31;74.28;102370.94;5072866;28;45560;-68
2021/10/10 01:00:57;;;;;;;;;36.50;28.50;;;;;12.31;74.52;102377.97;5073615;28;45715;-68
2021/10/10 01:03:23;;;;;;;;;41.75;34.50;;;;;12.30;74.64;102381.53;5072602;28;46137;-68
2021/10/10 01:05:49;;;;;;;;;45.75;33.25;;;;;12.27;74.44;102379.84;5069840;28;45505;-68
2021/10/10 01:08:16;;;;;;;;;35.00;32.25;;;;;12.25;74.63;102381.63;5066235;28;47890;-68
2021/10/10 01:10:44;;;;;;;;;40.75;32.25;;;;;12.20;74.33;102368.56;5073095;28;45560;-68
2021/10/10 01:13:10;;;;;;;;;37.75;33.50;;;;;12.18;74.41;102367.75;5073376;28;46769;-68
2021/10/10 01:15:35;;;;;;;;;34.00;32.00;;;;;12.14;74.42;102367.84;5066096;27;46882;-68
2021/10/10 01:18:01;;;;;;;;;40.75;33.50;;;;;12.11;74.47;102366.16;5073503;28;45357;-68
2021/10/10 01:20:27;;;;;;;;;36.75;31.00;;;;;12.13;74.34;102368.75;5071702;28;45357;-68
2021/10/10 01:22:53;;;;;;;;;39.75;31.75;;;;;12.09;74.22;102362.69;5070685;28;46637;-68
2021/10/10 01:25:19;;;;;;;;;35.50;31.50;;;;;12.03;74.55;102357.56;5072065;28;46115;-69
2021/10/10 01:27:44;;;;;;;;;31.00;29.50;;;;;12.05;74.54;102371.56;5079443;27;45410;-68
2021/10/10 01:30:10;;;;;;;;;39.25;31.50;;;;;12.03;74.74;102368.09;5073120;28;45576;-68
2021/10/10 01:32:37;;;;;;;;;38.00;32.75;;;;;12.01;74.48;102367.28;5072480;28;46298;-68
2021/10/10 01:35:03;;;;;;;;;34.00;27.50;;;;;11.99;74.42;102364.66;5068667;28;45409;-68
2021/10/10 01:37:28;;;;;;;;;41.25;34.00;;;;;11.94;74.89;102353.34;5071473;28;45511;-68
2021/10/10 01:39:53;;;;;;;;;30.00;24.00;;;;;11.96;75.02;102364.75;5071250;28;45775;-68
2021/10/10 01:42:19;;;;;;;;;38.33;31.00;;;;;11.92;75.05;102360.44;5066016;28;54397;-68
2021/10/10 01:44:44;;;;;;;;;38.50;31.00;;;;;11.92;74.35;102359.56;5064902;28;51492;-68
2021/10/10 01:47:09;;;;;;;;;38.75;33.75;;;;;11.91;75.01;102363.13;5072557;28;45382;-68
2021/10/10 01:49:38;;;;;;;;;47.50;33.25;;;;;11.87;74.79;102364.94;5070444;28;45491;-68
2021/10/10 01:52:05;;;;;;;;;41.50;30.75;;;;;11.85;74.74;102357.97;5079328;27;46343;-68
2021/10/10 01:54:30;;;;;;;;;43.00;33.50;;;;;11.80;75.03;102355.41;5071941;27;45486;-68
2021/10/10 01:56:55;;;;;;;;;39.75;33.25;;;;;11.76;74.71;102351.97;5072890;28;45951;-68
2021/10/10 01:59:21;;;;;;;;;45.00;35.00;;;;;11.70;74.95;102344.22;5072717;28;45303;-68
2021/10/10 02:01:46;;;;;;;;;43.50;33.25;;;;;11.73;75.07;102348.53;5068728;28;46574;-68
2021/10/10 02:04:11;;;;;;;;;37.00;30.67;;;;;11.72;74.75;102344.16;5070471;28;59618;-68
2021/10/10 02:06:37;;;;;;;;;38.00;34.00;;;;;11.68;74.91;102345.13;5070660;28;51248;-68
2021/10/10 02:09:02;;;;;;;;;41.00;33.50;;;;;11.67;75.04;102346.91;5068878;28;45383;-68
2021/10/10 02:11:27;;;;;;;;;42.50;34.25;;;;;11.66;75.55;102342.53;5061899;28;46402;-68
2021/10/10 02:13:53;;;;;;;;;43.00;31.00;;;;;11.62;75.17;102340.88;5059120;28;45296;-68
2021/10/10 02:16:18;;;;;;;;;41.50;31.50;;;;;11.60;74.78;102342.69;5068844;27;45209;-68
2021/10/10 02:18:45;;;;;;;;;29.50;27.25;;;;;11.58;74.83;102346.22;5074543;28;45658;-68
2021/10/10 02:21:10;;;;;;;;;40.75;34.00;;;;;11.45;74.99;102335.09;5070312;28;46048;-68
2021/10/10 02:23:35;;;;;;;;;33.25;29.75;;;;;11.49;74.83;102347.31;5066537;28;46956;-68
2021/10/10 02:26:01;;;;;;;;;36.50;27.75;;;;;11.46;75.13;102339.47;5071379;28;45430;-68
2021/10/10 02:28:26;;;;;;;;;35.25;31.25;;;;;11.43;74.96;102344.78;5062922;28;45539;-68
2021/10/10 02:30:52;;;;;;;;;32.50;27.25;;;;;11.38;74.91;102347.53;5063468;28;61806;-68
2021/10/10 02:33:18;;;;;;;;;35.50;28.00;;;;;11.36;75.19;102348.44;5062709;28;45389;-68
2021/10/10 02:35:44;;;;;;;;;33.75;26.25;;;;;11.31;74.76;102342.41;5064617;28;45509;-68
2021/10/10 02:38:11;;;;;;;;;35.50;30.75;;;;;11.29;74.76;102350.34;5071177;28;45323;-68
2021/10/10 02:40:36;;;;;;;;;40.75;34.00;;;;;11.26;75.05;102342.50;5065177;28;45707;-68
2021/10/10 02:43:02;;;;;;;;;39.25;34.00;;;;;11.24;75.27;102339.03;5073749;28;45619;-68
2021/10/10 02:45:27;;;;;;;;;32.25;30.00;;;;;11.17;74.95;102340.94;5060367;28;45427;-68
2021/10/10 02:47:53;;;;;;;;;34.50;28.75;;;;;11.14;75.17;102338.34;5066920;28;45276;-68
2021/10/10 02:50:18;;;;;;;;;42.00;33.00;;;;;11.13;74.83;102346.28;5065249;28;45386;-68
2021/10/10 02:52:43;;;;;;;;;35.00;31.00;;;;;11.08;75.40;102354.28;5066878;28;45395;-68
2021/10/10 02:55:09;;;;;;;;;35.75;29.75;;;;;11.05;75.43;102350.81;5060139;28;47207;-68
2021/10/10 02:57:34;;;;;;;;;40.75;33.50;;;;;11.00;75.52;102345.63;5072049;28;45387;-68
2021/10/10 02:59:59;;;;;;;;;39.50;30.00;;;;;10.96;75.51;102352.75;5068958;27;45427;-68
2021/10/10 03:02:24;;;;;;;;;45.33;32.33;;;;;10.95;75.68;102352.75;5053718;27;46601;-68
2021/10/10 03:04:50;;;;;;;;;34.33;32.00;;;;;10.93;75.34;102349.28;5070625;27;45402;-68
2021/10/10 03:07:15;;;;;;;;;39.00;33.50;;;;;10.91;75.41;102351.06;5071296;27;45467;-68
2021/10/10 03:09:40;;;;;;;;;40.75;34.50;;;;;10.92;75.55;102351.06;5072602;27;45525;-68
2021/10/10 03:12:06;;;;;;;;;38.75;30.75;;;;;10.88;75.77;102349.38;5068364;28;45339;-68
2021/10/10 03:14:31;;;;;;;;;43.25;33.75;;;;;10.87;75.89;102350.28;5072275;27;45473;-68
2021/10/10 03:16:56;;;;;;;;;41.00;32.25;;;;;10.84;75.87;102344.19;5069758;27;45437;-68
2021/10/10 03:19:22;;;;;;;;;48.33;35.33;;;;;10.84;76.27;102339.81;5070397;28;47431;-68
2021/10/10 03:21:47;;;;;;;;;41.50;34.75;;;;;10.85;75.83;102356.44;5069233;28;45373;-68
2021/10/10 03:24:12;;;;;;;;;42.00;35.75;;;;;10.81;76.33;102341.63;5071090;28;45523;-68
2021/10/10 03:26:38;;;;;;;;;37.50;34.25;;;;;10.83;76.05;102356.47;5072305;27;45482;-68
2021/10/10 03:29:03;;;;;;;;;36.00;30.75;;;;;10.81;75.73;102350.41;5064230;28;48960;-68
2021/10/10 03:31:28;;;;;;;;;41.33;35.33;;;;;10.71;76.35;102341.81;5066208;28;54470;-68
2021/10/10 03:33:54;;;;;;;;;39.00;35.00;;;;;10.74;76.09;102332.09;5077071;28;45665;-68
2021/10/10 03:36:19;;;;;;;;;43.00;34.75;;;;;10.76;76.08;102336.47;5074893;28;45402;-68
2021/10/10 03:38:44;;;;;;;;;40.67;35.00;;;;;10.76;76.33;102343.50;5073481;27;50172;-68
2021/10/10 03:41:10;;;;;;;;;45.50;35.25;;;;;10.74;76.14;102346.13;5074420;28;45382;-68
2021/10/10 03:43:35;;;;;;;;;49.50;35.00;;;;;10.73;76.40;102352.28;5073054;28;45343;-68
2021/10/10 03:46:00;;;;;;;;;41.50;36.25;;;;;10.73;76.53;102349.66;5076127;28;45460;-68
2021/10/10 03:48:26;;;;;;;;;40.75;35.25;;;;;10.74;76.56;102353.16;5075430;28;46446;-68
2021/10/10 03:50:51;;;;;;;;;44.75;32.75;;;;;10.73;76.29;102351.41;5071701;28;45358;-68
2021/10/10 03:53:17;;;;;;;;;46.25;37.50;;;;;10.69;76.00;102353.22;5073304;28;45350;-68
2021/10/10 03:55:43;;;;;;;;;37.25;35.50;;;;;10.65;76.62;102351.56;5066265;28;45553;-68
2021/10/10 03:58:12;;;;;;;;;48.50;36.50;;;;;10.63;76.31;102342.81;5075139;27;46389;-68
2021/10/10 04:00:38;;;;;;;;;55.50;37.25;;;;;10.64;76.57;102352.44;5074925;27;46035;-68
2021/10/10 04:03:05;;;;;;;;;45.75;37.00;;;;;10.55;76.55;102337.72;5071853;27;45509;-68
2021/10/10 04:07:58;;;;;;;;;48.00;38.75;;;;;10.59;76.40;102355.13;5073989;28;45523;-68
2021/10/10 04:10:24;;;;;;;;;54.75;38.75;;;;;10.59;76.73;102357.75;5072657;27;45473;-68
2021/10/10 04:12:49;;;;;;;;;49.75;38.75;;;;;10.56;77.00;102355.22;5076241;27;45544;-68
2021/10/10 04:15:15;;;;;;;;;49.25;36.00;;;;;10.58;76.67;102358.66;5073656;27;46494;-68
2021/10/10 04:17:42;;;;;;;;;46.50;37.75;;;;;10.54;76.56;102361.38;5056559;27;47367;-68
2021/10/10 04:20:10;;;;;;;;;48.75;38.50;;;;;10.58;76.85;102368.31;5069049;28;45470;-68
2021/10/10 04:22:36;;;;;;;;;47.25;38.50;;;;;10.55;76.51;102358.75;5074291;28;45537;-68
2021/10/10 04:25:02;;;;;;;;;46.00;35.00;;;;;10.47;76.79;102347.47;5076928;28;45358;-68
2021/10/10 04:27:28;;;;;;;;;45.50;39.00;;;;;10.49;76.30;102355.31;5073699;28;45431;-68
2021/10/10 04:29:53;;;;;;;;;53.75;39.00;;;;;10.49;76.47;102366.69;5072804;28;45540;-68
2021/10/10 04:32:18;;;;;;;;;42.75;35.25;;;;;10.48;76.70;102362.34;5074679;28;45602;-68
2021/10/10 04:34:44;;;;;;;;;44.00;37.00;;;;;10.47;76.54;102359.75;5074889;28;45274;-68
2021/10/10 04:37:09;;;;;;;;;48.33;37.00;;;;;10.46;76.52;102356.25;5075669;28;47911;-68
2021/10/10 04:39:34;;;;;;;;;46.75;37.50;;;;;10.44;76.94;102363.31;5075873;28;45371;-68
2021/10/10 04:42:00;;;;;;;;;55.00;38.50;;;;;10.40;76.84;102365.13;5070637;28;45645;-68
2021/10/10 04:44:25;;;;;;;;;49.50;38.50;;;;;10.38;76.91;102368.63;5054327;28;45491;-69
2021/10/10 04:46:50;;;;;;;;;44.75;35.00;;;;;10.34;76.65;102359.97;5062576;28;46222;-68
2021/10/10 04:49:16;;;;;;;;;53.25;38.00;;;;;10.34;76.40;102367.84;5073620;28;45456;-68
2021/10/10 04:51:41;;;;;;;;;44.00;37.00;;;;;10.30;76.74;102371.41;5075457;27;45484;-68
2021/10/10 04:54:06;;;;;;;;;50.00;37.50;;;;;10.28;76.59;102375.78;5073556;27;45548;-68
2021/10/10 04:56:32;;;;;;;;;50.50;38.00;;;;;10.28;76.63;102380.19;5069444;28;46728;-68
2021/10/10 04:58:57;;;;;;;;;42.25;36.00;;;;;10.27;76.74;102379.31;5070622;27;45736;-68
2021/10/10 05:01:23;;;;;;;;;49.00;38.25;;;;;10.25;76.67;102380.25;5072360;28;45511;-68
2021/10/10 05:03:48;;;;;;;;;41.50;35.00;;;;;10.23;77.39;102372.34;5069650;28;45477;-68
2021/10/10 05:06:13;;;;;;;;;57.00;41.00;;;;;10.20;76.88;102375.91;5070587;28;46605;-68
2021/10/10 05:08:39;;;;;;;;;47.00;37.75;;;;;10.22;77.22;102380.25;5073575;28;45490;-68
2021/10/10 05:11:05;;;;;;;;;47.25;36.25;;;;;10.17;76.83;102372.44;5063651;28;45658;-68
2021/10/10 05:13:30;;;;;;;;;50.50;38.25;;;;;10.20;77.00;102380.28;5071099;28;45525;-68
2021/10/10 05:15:55;;;;;;;;;46.25;32.50;;;;;10.18;77.19;102385.56;5071550;28;45566;-68
2021/10/10 05:18:21;;;;;;;;;49.50;38.00;;;;;10.15;76.72;102375.09;5072681;28;45439;-68
2021/10/10 05:20:46;;;;;;;;;43.50;38.50;;;;;10.06;77.09;102367.34;5072508;28;45508;-68
2021/10/10 05:23:14;;;;;;;;;55.33;37.33;;;;;10.16;77.48;102383.84;5072631;28;45647;-68
2021/10/10 05:25:40;;;;;;;;;51.25;38.50;;;;;10.14;77.36;102380.38;5073650;28;46459;-67
2021/10/10 05:28:06;;;;;;;;;44.25;36.50;;;;;10.14;77.23;102378.63;5054750;28;45693;-68
2021/10/10 05:30:31;;;;;;;;;54.00;40.00;;;;;10.10;76.90;102378.69;5084097;27;45474;-68
2021/10/10 05:32:56;;;;;;;;;45.00;37.67;;;;;10.13;77.24;102381.28;5075271;27;48860;-68
2021/10/10 05:35:22;;;;;;;;;50.50;39.75;;;;;10.08;77.15;102378.72;5071563;28;45603;-68
2021/10/10 05:37:47;;;;;;;;;52.25;36.75;;;;;10.08;77.31;102383.97;5054302;28;45699;-68
2021/10/10 05:40:12;;;;;;;;;45.00;37.25;;;;;10.02;76.89;102386.66;5072884;28;54829;-68
2021/10/10 05:42:38;;;;;;;;;48.25;38.50;;;;;10.03;77.17;102383.16;5069841;28;45641;-68
2021/10/10 05:45:04;;;;;;;;;46.25;38.75;;;;;10.02;77.02;102389.28;5071189;27;45471;-68
2021/10/10 05:47:29;;;;;;;;;48.50;38.25;;;;;10.01;77.04;102384.94;5071789;28;45386;-68
2021/10/10 05:49:55;;;;;;;;;53.00;40.00;;;;;9.92;76.87;102374.56;5069935;28;54831;-68
2021/10/10 05:52:24;;;;;;;;;45.67;36.00;;;;;9.98;77.25;102386.75;5066015;28;45348;-68
2021/10/10 05:54:49;;;;;;;;;41.75;37.00;;;;;9.97;77.48;102385.88;5070221;28;47225;-68
2021/10/10 05:57:17;;;;;;;;;50.75;40.25;;;;;9.96;77.13;102392.00;5063565;28;45417;-68
2021/10/10 05:59:43;;;;;;;;;45.75;34.50;;;;;9.93;77.18;102392.94;5070103;28;45418;-68
2021/10/10 06:02:09;;;;;;;;;50.75;36.75;;;;;9.93;77.27;102392.06;5071995;28;45467;-68
2021/10/10 06:04:34;;;;;;;;;47.75;38.50;;;;;9.92;77.32;102395.59;5068184;28;46629;-68
2021/10/10 06:06:59;;;;;;;;;56.50;37.75;;;;;9.92;77.01;102404.34;5072588;28;45716;-68
2021/10/10 06:09:24;;;;;;;;;49.67;39.33;;;;;9.93;77.11;102399.94;5072899;28;52319;-68
2021/10/10 06:11:50;;;;;;;;;56.00;38.50;;;;;9.91;77.21;102404.31;5066799;28;45375;-68
2021/10/10 06:14:16;;;;;;;;;46.25;39.00;;;;;9.90;77.21;102400.84;5067101;28;46551;-68
2021/10/10 06:16:42;;;;;;;;;41.25;35.75;;;;;9.92;77.35;102404.34;5070419;28;45482;-68
2021/10/10 06:19:07;;;;;;;;;46.00;38.00;;;;;9.95;77.42;102403.41;5064971;28;45265;-68
2021/10/10 06:21:33;;;;;;;;;45.50;38.25;;;;;9.96;77.09;102402.50;5068038;28;45476;-68
2021/10/10 06:23:58;;;;;;;;;49.50;39.00;;;;;9.93;77.36;102403.44;5070334;28;46232;-68
2021/10/10 06:26:24;;;;;;;;;52.50;38.75;;;;;9.94;77.25;102405.16;5069634;28;45496;-68
2021/10/10 06:28:50;;;;;;;;;52.75;40.00;;;;;9.98;77.42;102415.66;5050309;28;45519;-68
2021/10/10 06:31:16;;;;;;;;;53.00;39.75;;;;;10.00;76.90;102409.47;5069188;27;45486;-68
2021/10/10 06:33:41;;;;;;;;;49.00;38.75;;;;;10.04;76.95;102411.16;5073581;28;45660;-68
2021/10/10 06:36:06;;;;;;;;;54.25;39.25;;;;;10.06;77.37;102405.88;5069420;28;45432;-68
2021/10/10 06:38:32;;;;;;;;;50.75;37.25;;;;;10.08;77.54;102409.38;5069471;27;45633;-68
2021/10/10 06:40:57;;;;;;;;;52.00;40.00;;;;;10.12;77.46;102411.91;5077721;27;45600;-69
2021/10/10 06:43:23;;;;;;;;;50.25;39.25;;;;;10.15;77.37;102416.25;5066260;27;46310;-68
2021/10/10 06:45:48;;;;;;;;;55.50;38.75;;;;;10.24;77.27;102410.06;5067993;28;45580;-68
2021/10/10 06:48:13;;;;;;;;;51.00;40.00;;;;;10.31;77.24;102427.44;5055034;28;45943;-68
2021/10/10 06:50:41;;;;;;;;;51.00;39.00;;;;;10.30;76.86;102400.31;5060516;27;45401;-69
2021/10/10 06:53:07;;;;;;;;;52.50;39.00;;;;;10.50;77.41;102426.28;5076610;27;45595;-69
2021/10/10 06:55:32;;;;;;;;;49.25;37.25;;;;;10.60;76.68;102429.66;5050046;28;45316;-69
2021/10/10 06:57:58;;;;;;;;;44.50;37.50;;;;;10.65;76.83;102425.19;5070902;28;45394;-68
2021/10/10 07:00:23;;;;;;;;;54.25;40.00;;;;;10.75;77.26;102417.97;5067394;27;45598;-69
2021/10/10 07:02:48;;;;;;;;;49.75;38.75;;;;;10.94;77.26;102435.19;5062205;28;45440;-68
2021/10/10 07:05:16;;;;;;;;;43.25;36.75;;;;;11.30;77.54;102438.06;5059894;28;45579;-68
2021/10/10 07:07:41;;;;;;;;;51.00;40.00;;;;;11.89;76.68;102436.03;5065768;28;45688;-68
2021/10/10 07:10:08;;;;;;;;;54.50;39.00;;;;;12.19;75.33;102440.63;5072443;28;45472;-68
2021/10/10 07:12:34;;;;;;;;;56.50;42.00;;;;;12.38;75.09;102445.50;5068421;28;46487;-68
2021/10/10 07:15:01;;;;;;;;;48.75;37.50;;;;;12.54;75.18;102420.50;5070059;27;45473;-70
2021/10/10 07:17:27;;;;;;;;;56.25;42.00;;;;;12.92;75.07;102423.94;5068926;28;45503;-67
2021/10/10 07:25:08;;;;;;;;;57.25;42.50;;;;;15.32;72.56;102424.53;5073990;28;45586;-69
2021/10/10 07:27:43;;;;;;;;;50.00;39.50;;;;;16.30;70.45;102432.31;5070854;28;45529;-68
2021/10/10 07:30:12;;;;;;;;;52.00;40.75;;;;;17.46;68.20;102432.72;5062392;28;45454;-69
2021/10/10 07:32:38;;;;;;;;;49.50;40.50;;;;;18.65;66.15;102425.38;5074932;28;46226;-69
2021/10/10 07:35:05;;;;;;;;;51.75;39.00;;;;;20.10;63.90;102428.38;5073371;28;45466;-69
2021/10/10 07:37:31;;;;;;;;;55.00;43.50;;;;;21.46;61.16;102416.81;5073503;28;45453;-69
2021/10/10 07:39:56;;;;;;;;;51.25;39.00;;;;;22.48;59.01;102414.72;5073136;28;45478;-69
2021/10/10 07:42:22;;;;;;;;;51.50;39.25;;;;;23.63;56.50;102418.41;5073464;28;46734;-69
2021/10/10 07:44:50;;;;;;;;;53.25;39.75;;;;;24.81;54.40;102424.00;5073108;27;45598;-71
2021/10/10 07:49:45;;;;;;;;;43.00;35.00;;;;;27.05;50.29;102412.94;5068157;28;45572;-70
2021/10/10 07:52:11;;;;;;;;;49.75;36.75;;;;;27.94;49.08;102415.06;5070070;27;47299;-69
2021/10/10 07:54:37;;;;;;;;;39.00;31.00;;;;;28.88;46.77;102420.84;5071022;27;46134;-70
2021/10/10 07:57:03;;;;;;;;;40.75;31.75;;;;;29.87;44.82;102425.66;5075250;27;45419;-69
2021/10/10 07:59:28;;;;;;;;;38.25;32.50;;;;;30.68;43.23;102427.50;5070982;28;45714;-69
2021/10/10 08:01:53;;;;;;;;;37.25;31.00;;;;;31.38;41.79;102428.38;5071397;27;45665;-71
2021/10/10 08:04:19;;;;;;;;;33.75;31.50;;;;;32.27;40.79;102428.91;5064952;28;47072;-71
2021/10/10 08:06:47;;;;;;;;;39.50;30.75;;;;;33.00;39.35;102439.00;5071129;28;45605;-70
2021/10/10 08:09:12;;;;;;;;;36.00;30.00;;;;;33.55;39.04;102438.19;5064144;28;45323;-70
2021/10/10 08:11:37;;;;;;;;;42.75;32.00;;;;;33.79;37.02;102442.69;5067888;27;46365;-70
2021/10/10 08:14:03;;;;;;;;;37.25;30.00;;;;;34.25;36.39;102449.94;5073511;27;48578;-70
2021/10/10 08:16:28;;;;;;;;;40.00;32.25;;;;;34.98;36.41;102443.09;5073539;28;45338;-70
2021/10/10 08:18:53;;;;;;;;;32.25;30.75;;;;;35.40;34.39;102443.50;5066937;28;45453;-70
2021/10/10 08:21:18;;;;;;;;;39.25;32.25;;;;;35.43;33.81;102446.69;5071150;28;55244;-70
2021/10/10 08:23:44;;;;;;;;;31.50;29.50;;;;;35.39;33.90;102445.34;5075827;27;45496;-70
2021/10/10 08:26:09;;;;;;;;;38.75;33.00;;;;;35.65;33.02;102446.78;5068884;27;45477;-71
2021/10/10 08:28:34;;;;;;;;;40.50;33.50;;;;;36.26;32.45;102450.06;5072034;28;45501;-70
2021/10/10 08:31:00;;;;;;;;;44.25;34.75;;;;;36.70;31.23;102454.50;5074102;28;45437;-70
2021/10/10 08:33:27;;;;;;;;;37.50;32.75;;;;;37.23;31.05;102458.53;5073183;28;47768;-70
2021/10/10 08:35:53;;;;;;;;;40.00;33.75;;;;;37.72;30.26;102462.19;5072888;28;45661;-70
2021/10/10 08:38:18;;;;;;;;;38.50;33.00;;;;;37.85;29.62;102462.31;5071638;27;46595;-70
2021/10/10 08:40:44;;;;;;;;;33.25;31.50;;;;;38.02;29.61;102460.03;5071891;28;56563;-70
2021/10/10 08:43:13;;;;;;;;;39.00;32.00;;;;;38.51;28.87;102454.22;5073512;28;45719;-70
2021/10/10 08:45:41;;;;;;;;;40.00;33.25;;;;;38.87;28.58;102461.22;5075150;28;45499;-72
2021/10/10 08:48:06;;;;;;;;;38.00;32.50;;;;;38.82;27.18;102455.53;5074777;27;45593;-72
2021/10/10 08:50:32;;;;;;;;;39.00;33.00;;;;;38.58;27.63;102446.84;5072765;28;45515;-72
2021/10/10 08:52:59;;;;;;;;;40.00;33.00;;;;;38.73;26.90;102443.84;5071535;28;45934;-69
2021/10/10 08:55:34;;;;;;;;;42.75;32.75;;;;;39.03;27.07;102427.78;5073408;28;45589;-69
2021/10/10 08:58:00;;;;;;;;;38.00;32.00;;;;;39.37;26.83;102434.09;5071099;28;45493;-69
2021/10/10 09:00:31;;;;;;;;;34.50;32.00;;;;;39.86;25.76;102444.47;5068725;27;46309;-69
2021/10/10 09:02:57;;;;;;;;;41.25;32.50;;;;;40.12;25.48;102449.03;5064001;27;45314;-69
2021/10/10 09:05:26;;;;;;;;;35.50;31.00;;;;;40.15;25.14;102448.59;5066220;27;45517;-69
2021/10/10 09:07:51;;;;;;;;;35.25;30.00;;;;;40.38;25.18;102452.66;5080016;27;45570;-69
2021/10/10 09:10:27;;;;;;;;;38.50;32.75;;;;;40.45;24.98;102456.19;5067760;27;46572;-69
2021/10/10 09:13:05;;;;;;;;;33.75;29.25;;;;;40.23;25.46;102465.91;5060947;28;45532;-69
2021/10/10 09:15:31;;;;;;;;;32.00;29.00;;;;;39.65;24.78;102462.16;5070256;27;45461;-70
2021/10/10 09:17:58;;;;;;;;;35.00;30.50;;;;;39.08;24.75;102474.72;5066976;28;45515;-70
2021/10/10 09:20:46;;;;;;;;;35.75;31.25;;;;;38.54;24.75;102472.19;5068572;28;45727;-71
2021/10/10 09:23:17;;;;;;;;;46.75;37.00;;;;;37.33;25.35;102474.63;5068760;27;48039;-71
2021/10/10 09:25:55;;;;;;;;;34.25;30.75;;;;;36.86;25.58;102476.16;5069847;28;45749;-71
2021/10/10 09:28:22;;;;;;;;;30.75;28.75;;;;;36.67;25.75;102479.56;5066870;28;45972;-71
2021/10/10 09:30:50;;;;;;;;;33.25;29.50;;;;;36.69;25.44;102489.28;5059099;28;45553;-71
2021/10/10 09:33:15;;;;;;;;;36.75;30.50;;;;;36.62;26.45;102502.06;5070971;27;46008;-71
2021/10/10 09:35:42;;;;;;;;;35.25;29.50;;;;;36.51;25.89;102492.50;5068029;28;45300;-71
2021/10/10 09:38:14;;;;;;;;;39.00;32.00;;;;;36.20;26.24;102481.81;5064736;27;45520;-71
2021/10/10 09:40:52;;;;;;;;;32.25;29.00;;;;;35.56;26.64;102476.16;5064522;27;46345;-71
2021/10/10 09:43:18;;;;;;;;;37.25;32.00;;;;;34.65;26.65;102475.25;5062458;28;45849;-71
2021/10/10 09:48:15;;;;;;;;;36.25;31.50;;;;;33.37;28.39;102473.81;5067612;28;45567;-71
2021/10/10 09:50:48;;;;;;;;;37.25;30.50;;;;;33.32;28.06;102465.31;5072331;27;46657;-71
2021/10/10 09:53:18;;;;;;;;;34.00;30.50;;;;;33.32;28.90;102471.63;5063208;27;45574;-71
2021/10/10 09:55:55;;;;;;;;;33.25;29.00;;;;;33.25;29.15;102470.59;5067323;27;45560;-71
2021/10/10 09:58:41;;;;;;;;;31.50;30.00;;;;;32.96;28.34;102476.59;5076077;27;45503;-72
2021/10/10 10:01:20;;;;;;;;;35.75;29.00;;;;;32.75;29.43;102474.38;5069688;28;45710;-72
2021/10/10 10:03:56;;;;;;;;;34.50;29.00;;;;;32.67;28.61;102475.19;5071728;28;45755;-72
2021/10/10 10:06:23;;;;;;;;;29.75;26.75;;;;;32.67;29.24;102482.53;5072085;28;45599;-73
2021/10/10 10:08:49;;;;;;;;;29.50;24.25;;;;;32.46;29.06;102477.56;5067907;28;45693;-72
2021/10/10 10:11:15;;;;;;;;;32.75;28.25;;;;;32.32;28.53;102473.63;5071359;28;45660;-73
2021/10/10 10:13:43;;;;;;;;;32.25;26.75;;;;;32.21;28.79;102480.22;5073336;27;45489;-74
2021/10/10 10:16:11;;;;;;;;;35.00;29.25;;;;;31.78;28.59;102475.78;5072825;27;45397;-74
2021/10/10 10:18:44;;;;;;;;;33.50;29.50;;;;;31.36;29.85;102476.59;5068790;28;45900;-71
2021/10/10 10:21:09;;;;;;;;;31.75;27.25;;;;;31.01;30.41;102482.94;5062179;27;46645;-72
2021/10/10 10:23:36;;;;;;;;;25.75;25.25;;;;;30.77;30.71;102480.88;5067197;27;45565;-71
2021/10/10 10:26:03;;;;;;;;;33.25;29.25;;;;;30.61;30.41;102480.69;5068373;28;45500;-71
2021/10/10 10:28:31;;;;;;;;;33.25;31.00;;;;;30.38;30.78;102478.44;5067720;28;45524;-71
2021/10/10 10:30:57;;;;;;;;;35.75;29.75;;;;;30.20;31.17;102482.13;5061589;28;45666;-71
2021/10/10 10:33:23;;;;;;;;;38.50;31.00;;;;;30.04;31.07;102478.19;5071469;28;45697;-71
2021/10/10 10:35:48;;;;;;;;;32.25;29.50;;;;;29.85;31.92;102484.56;5071290;27;45597;-70
2021/10/10 10:38:14;;;;;;;;;30.00;24.25;;;;;29.69;31.50;102476.22;5068497;27;45648;-69
2021/10/10 10:40:40;;;;;;;;;28.00;27.00;;;;;29.46;31.39;102483.84;5064829;28;45506;-69
2021/10/10 10:43:07;;;;;;;;;31.75;28.75;;;;;29.17;31.55;102483.91;5061819;27;45658;-69
2021/10/10 10:45:37;;;;;;;;;28.25;26.25;;;;;28.70;32.21;102486.47;5069345;27;45510;-70
2021/10/10 10:48:08;;;;;;;;;28.25;26.25;;;;;28.25;32.80;102491.53;5073861;28;45533;-70
2021/10/10 10:50:42;;;;;;;;;28.50;25.50;;;;;27.96;32.98;102486.03;5069597;28;46574;-70
2021/10/10 10:53:19;;;;;;;;;32.75;26.50;;;;;27.80;33.45;102482.00;5077576;27;45748;-70
2021/10/10 10:55:53;;;;;;;;;28.25;24.75;;;;;27.69;33.19;102487.47;5076719;27;45439;-70
2021/10/10 10:58:18;;;;;;;;;29.25;25.75;;;;;27.54;33.43;102481.56;5070181;28;45816;-70
2021/10/10 11:00:50;;;;;;;;;27.00;22.50;;;;;27.36;33.57;102485.88;5075286;27;60123;-69
2021/10/10 11:03:22;;;;;;;;;25.00;23.50;;;;;27.16;34.11;102486.75;5071776;28;45608;-69
2021/10/10 11:05:54;;;;;;;;;23.00;22.00;;;;;26.86;33.90;102482.09;5076208;27;45653;-69
2021/10/10 11:08:22;;;;;;;;;24.25;22.25;;;;;26.54;34.30;102477.56;5072749;28;45741;-68
2021/10/10 11:11:18;;;;;;;;;24.25;23.75;;;;;26.23;34.72;102485.44;5068447;28;46273;-69
2021/10/10 11:14:02;;;;;;;;;22.50;22.25;;;;;26.07;35.01;102482.28;5055533;28;45727;-70
2021/10/10 11:16:30;;;;;;;;;21.00;20.25;;;;;25.97;35.30;102479.47;5074712;28;45521;-70
2021/10/10 11:19:07;;;;;;;;;23.00;19.50;;;;;25.89;34.97;102478.38;5070505;28;45557;-71